Time;durP1;ratioP1;P1;durP2;ratioP2;P2;SDS_P1;SDS_P2;PMS_P1;PMS_P2;Temp;Humidity;BMP_temperature;BMP_pressure;BME280_temperature;BME280_humidity;BME280_pressure;Samples;Min_cycle;Max_cycle;Signal;HPM_P1;HPM_P2
2022/04/15 00:01:17;;;;;;;4.82;4.20;;;;;;;6.51;73.38;99080.97;4829937;29;20521;-86
2022/04/15 00:03:43;;;;;;;6.80;5.03;;;;;;;6.46;73.27;99073.28;4861164;29;20136;-86
2022/04/15 00:06:10;;;;;;;18.65;5.15;;;;;;;6.43;73.74;99076.19;4830251;29;20045;-87
2022/04/15 00:08:37;;;;;;;8.10;5.10;;;;;;;6.47;73.36;99074.13;4844829;29;20072;-88
2022/04/15 00:11:03;;;;;;;5.95;5.28;;;;;;;6.47;73.53;99074.13;4829518;29;20049;-87
2022/04/15 00:13:31;;;;;;;5.40;4.55;;;;;;;6.46;73.40;99075.09;4860904;29;20052;-89
2022/04/15 00:15:58;;;;;;;5.43;4.85;;;;;;;6.48;73.40;99066.09;4862870;29;20084;-86
2022/04/15 00:18:24;;;;;;;7.38;4.35;;;;;;;6.45;73.42;99066.28;4860032;29;20053;-85
2022/04/15 00:20:52;;;;;;;4.72;4.13;;;;;;;6.46;73.79;99061.81;4860709;29;20056;-85
2022/04/15 00:23:18;;;;;;;4.95;4.45;;;;;;;6.42;73.89;99061.19;4829088;29;20101;-84
2022/04/15 00:25:44;;;;;;;6.25;4.30;;;;;;;6.40;73.64;99063.09;4844290;29;20048;-84
2022/04/15 00:28:10;;;;;;;4.28;3.88;;;;;;;6.43;73.54;99070.88;4860933;29;20045;-87
2022/04/15 00:30:36;;;;;;;4.75;3.67;;;;;;;6.41;74.09;99058.63;4845376;29;20113;-88
2022/04/15 00:33:02;;;;;;;4.55;4.15;;;;;;;6.30;74.18;99064.66;4845239;29;20052;-88
2022/04/15 00:35:28;;;;;;;8.85;4.25;;;;;;;6.27;74.25;99063.06;4845380;29;20058;-88
2022/04/15 00:37:54;;;;;;;6.20;4.05;;;;;;;6.24;74.35;99049.13;4861089;29;20050;-88
2022/04/15 00:40:20;;;;;;;5.40;3.70;;;;;;;6.25;74.57;99054.38;4860193;29;20049;-88
2022/04/15 00:42:46;;;;;;;5.60;3.20;;;;;;;6.28;74.95;99058.59;4845773;29;20056;-89
2022/04/15 00:45:12;;;;;;;3.53;3.22;;;;;;;6.24;74.32;99052.66;4861388;29;20102;-88
2022/04/15 00:47:53;;;;;;;4.00;3.35;;;;;;;6.14;75.16;99056.03;4859625;29;20072;-87
2022/04/15 00:50:20;;;;;;;7.18;3.28;;;;;;;6.19;75.10;99059.22;4814162;29;20157;-88
2022/04/15 00:52:49;;;;;;;3.72;3.10;;;;;;;6.18;74.95;99063.69;4829422;29;20144;-89
2022/04/15 00:55:16;;;;;;;4.75;3.60;;;;;;;6.15;75.15;99057.72;4844844;29;20045;-89
2022/04/15 00:57:44;;;;;;;4.45;3.80;;;;;;;6.10;75.42;99057.19;4845510;29;20080;-90
2022/04/15 01:00:13;;;;;;;3.35;3.03;;;;;;;6.08;75.82;99058.13;4847076;29;20050;-89
2022/04/15 01:02:39;;;;;;;4.35;3.45;;;;;;;6.06;75.81;99059.19;4834228;29;20045;-92
2022/04/15 01:05:08;;;;;;;3.58;3.28;;;;;;;6.02;75.80;99061.19;4839001;29;20045;-91
2022/04/15 01:07:36;;;;;;;4.18;3.40;;;;;;;5.97;76.13;99060.63;4845260;29;20048;-88
2022/04/15 01:10:06;;;;;;;3.50;3.20;;;;;;;6.03;75.81;99054.94;4861711;29;20055;-88
2022/04/15 01:12:37;;;;;;;5.55;3.50;;;;;;;6.03;75.95;99060.25;4865275;29;20160;-90
2022/04/15 01:15:09;;;;;;;3.53;3.22;;;;;;;6.03;75.70;99057.59;4844900;29;20096;-84
2022/04/15 01:17:36;;;;;;;4.10;3.30;;;;;;;6.02;76.02;99065.66;4860489;29;20057;-86
2022/04/15 01:20:08;;;;;;;3.92;3.05;;;;;;;6.01;75.77;99051.50;4846000;29;20054;-87
2022/04/15 01:22:45;;;;;;;4.75;3.50;;;;;;;6.13;75.60;99075.53;4833023;29;20045;-87
2022/04/15 01:25:13;;;;;;;5.63;3.50;;;;;;;6.13;75.30;99067.56;4848505;29;20053;-92
2022/04/15 01:27:41;;;;;;;4.60;3.53;;;;;;;6.10;75.62;99066.00;4848980;29;20065;-89
2022/04/15 01:30:11;;;;;;;4.22;3.60;;;;;;;6.09;75.10;99064.28;4864798;29;20052;-88
2022/04/15 01:32:37;;;;;;;22.10;3.95;;;;;;;6.07;75.34;99069.69;4833820;29;20287;-91
2022/04/15 01:35:06;;;;;;;6.40;3.92;;;;;;;6.14;74.97;99077.25;4851390;29;20049;-89
2022/04/15 01:37:32;;;;;;;4.35;3.90;;;;;;;6.14;75.11;99079.91;4851708;29;20049;-90
2022/04/15 01:39:58;;;;;;;5.38;3.92;;;;;;;6.18;74.97;99078.75;4839983;29;20049;-90
2022/04/15 01:42:25;;;;;;;4.88;4.00;;;;;;;6.16;74.73;99076.19;4854435;29;20046;-91
2022/04/15 01:44:51;;;;;;;7.70;4.28;;;;;;;6.17;74.79;99071.72;4841531;29;20097;-88
2022/04/15 01:47:17;;;;;;;7.38;4.07;;;;;;;6.15;74.60;99069.19;4848422;29;20049;-91
2022/04/15 01:49:44;;;;;;;5.35;4.40;;;;;;;6.13;75.10;99072.88;4833777;29;20094;-90
2022/04/15 01:52:09;;;;;;;5.85;4.15;;;;;;;6.13;74.72;99076.41;4833265;29;20049;-90
2022/04/15 01:54:36;;;;;;;7.47;4.32;;;;;;;6.14;74.80;99077.25;4848225;29;20450;-89
2022/04/15 01:57:02;;;;;;;9.00;4.22;;;;;;;6.14;74.67;99082.56;4865201;29;20458;-90
2022/04/15 01:59:28;;;;;;;6.22;4.40;;;;;;;6.13;74.66;99080.84;4868593;29;20085;-91
2022/04/15 02:01:54;;;;;;;8.68;4.07;;;;;;;6.20;74.51;99079.50;4847502;29;20521;-86
2022/04/15 02:04:22;;;;;;;7.07;4.13;;;;;;;6.20;74.33;99082.16;4846361;29;20048;-87
2022/04/15 02:06:48;;;;;;;8.07;4.55;;;;;;;6.25;74.24;99077.41;4846710;29;20049;-86
2022/04/15 02:09:15;;;;;;;10.63;4.75;;;;;;;6.27;74.05;99078.13;4831481;29;20045;-89
2022/04/15 02:11:41;;;;;;;5.70;4.13;;;;;;;6.33;73.84;99073.28;4846555;29;20049;-90
2022/04/15 02:14:07;;;;;;;8.25;4.75;;;;;;;6.35;73.64;99069.66;4863518;29;20592;-88
2022/04/15 02:16:34;;;;;;;8.35;4.07;;;;;;;6.40;73.41;99067.56;4853765;29;20061;-91
2022/04/15 02:19:00;;;;;;;6.55;4.35;;;;;;;6.39;73.38;99072.00;4843792;29;20077;-89
2022/04/15 02:21:25;;;;;;;8.73;4.18;;;;;;;6.36;73.52;99072.22;4835470;29;20186;-89
2022/04/15 02:23:51;;;;;;;6.57;4.10;;;;;;;6.44;73.42;99072.56;4855609;29;20090;-92
2022/04/15 02:26:18;;;;;;;8.35;4.65;;;;;;;6.42;72.92;99066.47;4851531;29;20498;-89
2022/04/15 02:28:44;;;;;;;6.53;4.07;;;;;;;6.48;72.86;99068.75;4835507;29;20046;-87
2022/04/15 02:31:09;;;;;;;8.02;5.10;;;;;;;6.60;72.42;99076.84;4853572;29;20044;-88
2022/04/15 02:33:35;;;;;;;4.95;3.80;;;;;;;6.60;72.23;99074.19;4873479;29;20061;-89
2022/04/15 02:36:02;;;;;;;7.50;3.72;;;;;;;6.66;71.98;99079.09;4854157;29;20053;-86
2022/04/15 02:38:29;;;;;;;7.82;4.43;;;;;;;6.67;71.47;99065.69;4835617;29;20085;-87
2022/04/15 02:40:58;;;;;;;7.18;4.18;;;;;;;6.69;72.05;99068.22;4856013;29;20045;-86
2022/04/15 02:43:32;;;;;;;8.30;4.30;;;;;;;6.71;71.82;99076.94;4849044;29;20041;-86
2022/04/15 02:46:09;;;;;;;8.00;3.75;;;;;;;6.75;71.94;99081.09;4829878;29;20050;-86
2022/04/15 02:48:35;;;;;;;5.25;3.70;;;;;;;6.79;71.48;99061.31;4831084;29;20046;-88
2022/04/15 02:51:02;;;;;;;7.38;3.95;;;;;;;6.87;71.16;99072.28;4844328;29;20072;-85
2022/04/15 02:53:30;;;;;;;8.95;3.88;;;;;;;6.88;70.75;99084.59;4843684;29;20045;-88
2022/04/15 02:56:01;;;;;;;8.13;3.85;;;;;;;6.89;70.73;99075.69;4834811;29;20045;-90
2022/04/15 02:58:34;;;;;;;8.23;4.10;;;;;;;7.03;70.60;99082.69;4834368;29;20052;-88
2022/04/15 03:01:01;;;;;;;9.10;4.22;;;;;;;7.25;70.29;99088.19;4830836;29;20458;-88
2022/04/15 03:03:30;;;;;;;8.55;4.32;;;;;;;7.22;69.71;99068.94;4851354;29;20121;-91
2022/04/15 03:05:56;;;;;;;4.28;3.58;;;;;;;7.55;70.08;99085.16;4839968;29;20073;-88
2022/04/15 03:08:22;;;;;;;6.65;3.60;;;;;;;7.86;69.05;99093.63;4833931;29;20094;-86
2022/04/15 03:10:48;;;;;;;7.80;3.58;;;;;;;8.08;68.69;99097.34;4849236;29;20053;-85
2022/04/15 03:13:14;;;;;;;7.10;3.97;;;;;;;8.20;67.78;99091.97;4830949;29;20136;-90
2022/04/15 03:15:40;;;;;;;4.65;3.92;;;;;;;8.20;66.81;99089.31;4854500;29;20081;-87
2022/04/15 03:18:07;;;;;;;4.13;3.40;;;;;;;8.29;67.02;99093.09;4855620;29;20040;-86
2022/04/15 03:20:33;;;;;;;4.47;3.50;;;;;;;8.24;66.52;99081.97;4838537;29;20053;-84
2022/04/15 03:22:58;;;;;;;9.15;4.00;;;;;;;8.35;66.17;99100.66;4819788;29;20074;-88
2022/04/15 03:25:24;;;;;;;6.32;4.07;;;;;;;8.25;66.34;99089.81;4828111;29;20080;-83
2022/04/15 03:27:51;;;;;;;4.60;3.85;;;;;;;8.27;67.99;99087.03;4841573;29;20150;-83
2022/04/15 03:30:19;;;;;;;6.75;3.47;;;;;;;8.87;71.94;99090.53;4840767;29;20086;-81
2022/04/15 03:32:50;;;;;;;6.00;4.00;;;;;;;9.25;67.51;99082.19;4826631;29;20081;-87
2022/04/15 03:35:20;;;;;;;7.28;4.25;;;;;;;9.31;64.83;99099.56;4829829;29;20110;-91
2022/04/15 03:37:51;;;;;;;;;;;;;;;9.17;63.41;99087.28;4830760;29;20130;-88
2022/04/15 03:40:18;;;;;;;7.07;4.30;;;;;;;8.90;63.58;99096.47;4842535;29;20324;-81
2022/04/15 03:42:52;;;;;;;5.10;4.50;;;;;;;8.86;64.08;99095.00;4826913;29;20049;-86
2022/04/15 03:45:19;;;;;;;9.07;5.30;;;;;;;8.76;64.00;99088.69;4838002;29;20061;-88
2022/04/15 03:47:46;;;;;;;9.48;4.53;;;;;;;8.62;64.23;99104.91;4832088;29;20219;-82
2022/04/15 03:50:13;;;;;;;9.73;4.75;;;;;;;8.48;64.34;99096.13;4852513;29;20090;-90
2022/04/15 03:52:42;;;;;;;5.82;4.82;;;;;;;8.42;64.40;99091.22;4861965;29;20045;-85
2022/04/15 03:55:10;;;;;;;5.30;4.60;;;;;;;8.27;64.50;99087.03;4844899;29;20056;-88
2022/04/15 03:57:40;;;;;;;5.32;4.40;;;;;;;8.24;64.97;99087.28;4845983;29;20437;-86
2022/04/15 04:00:14;;;;;;;4.88;4.45;;;;;;;8.46;69.31;99089.19;4830776;29;20492;-86
2022/04/15 04:02:43;;;;;;;5.57;4.38;;;;;;;8.64;65.87;99086.97;4830492;29;20053;-89
2022/04/15 04:05:09;;;;;;;7.28;4.55;;;;;;;8.63;64.27;99093.25;4844918;29;20101;-87
2022/04/15 04:07:35;;;;;;;6.63;4.55;;;;;;;8.60;63.89;99082.81;4861361;29;20053;-87
2022/04/15 04:10:01;;;;;;;8.88;4.93;;;;;;;8.55;63.98;99082.34;4829848;29;20045;-91
2022/04/15 04:12:33;;;;;;;6.95;4.50;;;;;;;8.59;64.77;99083.81;4850844;29;20532;-88
2022/04/15 04:15:04;;;;;;;4.97;4.20;;;;;;;8.65;64.53;99078.00;4868314;29;20121;-90
2022/04/15 04:17:30;;;;;;;7.95;4.68;;;;;;;8.71;64.46;99072.19;4835720;29;20562;-92
2022/04/15 04:19:56;;;;;;;8.55;4.50;;;;;;;8.91;64.11;99076.88;4876277;23;20060;-87
2022/04/15 04:22:33;;;;;;;5.65;4.75;;;;;;;9.02;63.97;99061.81;4858158;29;20055;-92
2022/04/15 04:25:00;;;;;;;6.05;4.53;;;;;;;9.02;63.63;99069.81;4861443;29;20055;-89
2022/04/15 04:27:26;;;;;;;6.85;4.90;;;;;;;8.83;63.75;99070.41;5200483;23;20035;-89
2022/04/15 04:29:52;;;;;;;13.43;4.90;;;;;;;8.81;63.49;99038.56;4880852;29;20061;-92
2022/04/15 04:32:19;;;;;;;10.48;5.30;;;;;;;8.99;63.85;99046.94;4867838;29;20037;-91
2022/04/15 04:34:45;;;;;;;10.07;4.60;;;;;;;9.03;63.50;99052.84;4877312;29;20428;-88
2022/04/15 04:37:11;;;;;;;8.27;4.10;;;;;;;9.13;63.50;99053.84;4877011;29;20056;-87
2022/04/15 04:39:37;;;;;;;9.73;5.00;;;;;;;9.13;63.24;99064.50;4877416;29;20052;-88
2022/04/15 04:42:04;;;;;;;6.70;4.80;;;;;;;9.18;62.88;99051.69;4901018;29;20053;-91
2022/04/15 04:44:31;;;;;;;7.78;4.63;;;;;;;9.15;62.69;99046.59;4911978;23;20045;-88
2022/04/15 04:46:59;;;;;;;14.02;4.10;;;;;;;9.19;62.89;99040.88;5123131;23;20040;-88
2022/04/15 04:49:25;;;;;;;8.05;4.82;;;;;;;9.20;62.45;99029.22;4888922;23;20943;-90
2022/04/15 04:51:54;;;;;;;14.30;5.32;;;;;;;9.28;62.41;99025.09;4897994;29;20052;-85
2022/04/15 04:54:24;;;;;;;5.80;4.35;;;;;;;9.36;62.44;99031.53;4870612;29;20045;-90
2022/04/15 04:56:50;;;;;;;9.52;4.70;;;;;;;9.38;62.41;99021.59;4904117;29;20049;-89
2022/04/15 04:59:16;;;;;;;11.98;5.38;;;;;;;9.57;62.17;99046.78;4930935;23;20068;-93
2022/04/15 05:01:42;;;;;;;7.78;4.90;;;;;;;9.74;61.65;99048.94;4970845;23;20069;-89
2022/04/15 05:04:08;;;;;;;6.15;4.60;;;;;;;9.84;61.81;99038.34;4883520;29;20059;-92
2022/04/15 05:06:35;;;;;;;6.45;4.80;;;;;;;9.94;60.79;99034.81;4880594;29;20052;-91
2022/04/15 05:09:01;;;;;;;7.15;3.83;;;;;;;10.06;60.82;99042.78;4874694;29;20112;-91
2022/04/15 05:11:27;;;;;;;6.70;3.45;;;;;;;10.14;60.90;99034.97;4897101;29;20041;-85
2022/04/15 05:13:53;;;;;;;3.50;3.13;;;;;;;10.35;59.95;99053.75;4877760;29;20102;-95
2022/04/15 05:16:19;;;;;;;6.90;2.88;;;;;;;10.49;58.58;99040.06;4874006;29;20052;-86
2022/04/15 05:19:16;;;;;;;4.20;2.47;;;;;;;10.54;57.83;99045.88;4930723;23;20033;31
2022/04/15 05:21:42;;;;;;;5.63;2.58;;;;;;;10.60;57.77;99057.88;4844858;29;20053;-85
2022/04/15 05:24:09;;;;;;;7.75;2.92;;;;;;;10.59;57.75;99034.78;4851914;29;20395;-80
2022/04/15 05:26:38;;;;;;;8.50;3.10;;;;;;;10.72;57.89;99034.59;4828755;29;20054;-81
2022/04/15 05:29:04;;;;;;;3.00;2.38;;;;;;;10.94;57.69;99024.63;4828016;29;20458;-84
2022/04/15 05:31:30;;;;;;;6.55;2.97;;;;;;;11.09;56.42;99029.59;4844655;29;20133;-84
2022/04/15 05:33:56;;;;;;;11.48;3.25;;;;;;;11.12;56.74;99023.97;4844412;29;20049;-81
2022/04/15 05:36:22;;;;;;;5.22;2.38;;;;;;;11.28;56.09;99016.28;4827744;29;20842;-80
2022/04/15 05:38:48;;;;;;;4.13;2.13;;;;;;;11.60;55.52;99017.94;4827479;29;20045;-84
2022/04/15 05:41:13;;;;;;;6.80;2.50;;;;;;;11.83;54.17;99016.75;4813085;29;20056;-85
2022/04/15 05:43:39;;;;;;;3.47;2.40;;;;;;;11.90;54.09;99011.69;4844802;29;20107;-82
2022/04/15 05:46:05;;;;;;;8.27;2.65;;;;;;;11.75;54.09;98992.47;4844205;29;20054;-84
2022/04/15 05:48:31;;;;;;;5.32;2.42;;;;;;;11.96;54.37;99000.44;4810661;29;20061;-89
2022/04/15 05:50:58;;;;;;;14.02;2.55;;;;;;;12.18;53.22;99026.09;4808324;29;20526;-81
2022/04/15 05:53:24;;;;;;;16.25;2.88;;;;;;;12.30;52.49;99002.69;4827765;29;20041;-82
2022/04/15 05:55:51;;;;;;;13.45;2.75;;;;;;;12.39;52.59;99009.88;4849745;29;20053;-85
2022/04/15 05:58:17;;;;;;;7.88;2.78;;;;;;;12.53;54.65;99006.75;4834737;29;20057;-87
2022/04/15 06:00:43;;;;;;;7.93;2.85;;;;;;;12.89;56.26;98986.31;4839878;29;20046;-88
2022/04/15 06:03:10;;;;;;;9.75;2.67;;;;;;;13.08;52.69;99003.34;4849666;29;20157;-81
2022/04/15 06:05:36;;;;;;;3.92;2.05;;;;;;;13.29;52.56;98990.59;4839491;29;20150;-90
2022/04/15 06:08:02;;;;;;;8.18;2.35;;;;;;;13.58;52.55;98973.50;4828650;29;20050;-87
2022/04/15 06:10:30;;;;;;;9.07;2.88;;;;;;;13.90;50.56;98980.19;4848544;29;20050;-84
2022/04/15 06:13:03;;;;;;;13.52;2.65;;;;;;;13.75;49.42;98980.72;4839528;29;20406;-88
2022/04/15 06:15:33;;;;;;;6.63;2.20;;;;;;;13.57;48.69;98977.16;4824479;29;20458;-88
2022/04/15 06:18:00;;;;;;;;;;;;;;;13.35;48.93;98978.41;4854597;29;20046;-85
2022/04/15 06:20:26;;;;;;;7.50;1.92;;;;;;;13.17;49.30;98978.34;4829557;29;19939;-87
2022/04/15 06:22:52;;;;;;;5.40;2.35;;;;;;;13.17;49.13;98983.69;4826824;29;20042;-88
2022/04/15 06:25:18;;;;;;;7.80;2.20;;;;;;;13.01;49.62;98991.50;4819004;29;20061;-84
2022/04/15 06:27:44;;;;;;;11.57;2.28;;;;;;;12.92;49.61;98973.63;4800872;29;20514;-83
2022/04/15 06:30:10;;;;;;;3.70;2.10;;;;;;;13.30;49.58;98970.78;4814254;29;20422;-90
2022/04/15 06:32:36;;;;;;;10.93;2.90;;;;;;;13.27;49.03;98976.47;4811527;29;20077;-82
2022/04/15 06:35:06;;;;;;;4.35;2.33;;;;;;;13.39;49.81;98954.78;4826249;29;20046;-84
2022/04/15 06:37:32;;;;;;;5.05;1.90;;;;;;;13.16;48.69;98965.88;4806026;29;20080;-85
2022/04/15 06:39:58;;;;;;;8.20;1.98;;;;;;;12.96;48.39;98950.88;4848907;29;20042;-90
2022/04/15 06:42:30;;;;;;;5.22;2.17;;;;;;;13.04;49.10;98957.19;4849573;29;20410;-90
2022/04/15 06:44:56;;;;;;;7.97;2.22;;;;;;;12.96;49.15;98956.25;4837990;29;20050;-93
2022/04/15 06:47:22;;;;;;;9.25;2.38;;;;;;;12.94;49.16;98967.13;4816810;29;20148;-92
2022/04/15 06:49:47;;;;;;;9.40;2.67;;;;;;;13.09;49.46;98962.13;4844883;29;20400;-91
2022/04/15 06:52:15;;;;;;;7.50;2.58;;;;;;;13.12;48.86;98957.28;4820068;29;20399;-88
2022/04/15 06:54:41;;;;;;;6.40;2.10;;;;;;;13.10;48.95;98942.34;4818486;29;20133;-87
2022/04/15 06:57:07;;;;;;;8.73;2.20;;;;;;;12.96;49.34;98934.78;4833343;29;20074;-93
2022/04/15 06:59:34;;;;;;;4.88;2.45;;;;;;;12.89;49.97;98956.81;4828230;29;20061;-94
2022/04/15 07:02:01;;;;;;;3.78;1.80;;;;;;;12.87;49.77;98950.78;4853702;29;20459;-87
2022/04/15 07:04:28;;;;;;;7.03;1.88;;;;;;;12.89;49.51;98937.19;4847548;29;20565;-86
2022/04/15 07:06:55;;;;;;;13.98;2.38;;;;;;;12.99;49.81;98966.69;4848936;29;20046;-92
2022/04/15 07:09:21;;;;;;;12.05;2.10;;;;;;;12.69;48.97;98923.03;4834040;29;20103;-90
2022/04/15 07:11:47;;;;;;;4.43;2.10;;;;;;;12.79;49.10;98944.47;4833911;29;20046;-92
2022/04/15 07:14:13;;;;;;;5.88;2.00;;;;;;;12.75;49.56;98935.84;4851961;29;20060;-90
2022/04/15 07:16:39;;;;;;;3.17;2.90;;;;;;;13.01;49.40;98953.94;4872124;29;20064;-91
2022/04/15 07:19:07;;;;;;;9.73;2.35;;;;;;;12.91;49.52;98942.44;4873791;29;20054;-89
2022/04/15 07:21:40;;;;;;;6.28;2.63;;;;;;;12.82;49.10;98933.41;4863797;29;20053;-92
2022/04/15 07:24:06;;;;;;;5.72;2.38;;;;;;;12.93;49.01;98910.91;4869528;23;20067;-92
2022/04/15 07:26:33;;;;;;;10.75;2.75;;;;;;;13.14;49.73;98911.53;4864402;29;20057;-90
2022/04/15 07:28:58;;;;;;;9.68;2.70;;;;;;;13.21;48.54;98915.31;4885360;29;20048;-94
2022/04/15 07:31:25;;;;;;;6.43;2.22;;;;;;;13.39;48.07;98888.53;4850842;29;20083;-85
2022/04/15 07:33:55;;;;;;;4.85;2.63;;;;;;;13.74;47.61;98898.44;4863693;29;20041;-88
2022/04/15 07:37:22;;;;;;;5.22;2.35;;;;;;;13.93;47.70;98900.13;4866108;29;20421;-86
2022/04/15 07:39:16;;;;;;;9.45;2.40;;;;;;;14.18;46.91;98895.78;4870846;29;20033;-94
2022/04/15 07:41:42;;;;;;;8.05;2.47;;;;;;;14.25;46.20;98878.00;4865551;29;20048;-90
2022/04/15 07:44:10;;;;;;;10.55;2.10;;;;;;;14.37;46.35;98907.31;4833854;29;20045;-91
2022/04/15 07:46:40;;;;;;;6.55;2.20;;;;;;;14.24;45.26;98889.78;4848565;29;20436;-89
2022/04/15 07:49:07;;;;;;;15.50;2.50;;;;;;;14.12;45.83;98885.66;4848424;29;20410;-84
2022/04/15 07:51:34;;;;;;;7.70;2.20;;;;;;;14.30;46.45;98889.16;4863037;29;20394;-85
2022/04/15 07:54:01;;;;;;;7.00;2.53;;;;;;;14.18;45.88;98878.78;4832619;29;20416;-80
2022/04/15 07:56:27;;;;;;;3.88;2.50;;;;;;;14.26;45.57;98877.03;4863132;29;20540;-83
2022/04/15 07:58:53;;;;;;;6.90;1.92;;;;;;;14.30;44.93;98883.78;4833326;29;20085;-88
2022/04/15 08:01:20;;;;;;;5.82;1.95;;;;;;;14.37;45.53;98880.44;4835982;29;20081;-88
2022/04/15 08:03:46;;;;;;;5.88;2.38;;;;;;;14.49;44.73;98877.38;4880425;29;20082;-86
2022/04/15 08:06:13;;;;;;;3.58;1.90;;;;;;;14.55;44.34;98865.13;4861896;29;20508;-84
2022/04/15 08:08:40;;;;;;;4.55;2.40;;;;;;;14.67;44.41;98880.00;4848690;29;20049;-85
2022/04/15 08:11:07;;;;;;;10.18;3.60;;;;;;;14.81;43.90;98860.53;4831991;29;20105;-87
2022/04/15 08:13:33;;;;;;;10.77;2.30;;;;;;;14.89;43.40;98875.03;4865572;29;20075;-87
2022/04/15 08:15:59;;;;;;;3.35;1.80;;;;;;;14.99;42.92;98852.38;4867601;29;20131;-87
2022/04/15 08:18:25;;;;;;;8.82;1.95;;;;;;;15.22;42.93;98832.94;4850174;29;20072;-87
2022/04/15 08:20:52;;;;;;;7.03;3.10;;;;;;;15.53;42.43;98838.53;4851221;29;20528;-83
2022/04/15 08:23:19;;;;;;;6.25;2.30;;;;;;;15.38;42.53;98856.34;4873411;29;20055;-81
2022/04/15 08:25:45;;;;;;;7.13;3.28;;;;;;;15.23;42.92;98851.63;4837984;29;20509;-82
2022/04/15 08:28:11;;;;;;;11.00;2.58;;;;;;;15.04;42.98;98841.13;4856262;29;20065;-88
2022/04/15 08:30:38;;;;;;;11.20;2.63;;;;;;;14.78;43.62;98849.25;4857352;29;20045;-85
2022/04/15 08:33:05;;;;;;;13.55;2.78;;;;;;;14.81;44.23;98839.00;4847885;29;20135;-82
2022/04/15 08:35:32;;;;;;;5.53;2.50;;;;;;;14.83;44.21;98841.56;4833970;29;20398;-81
2022/04/15 08:37:58;;;;;;;11.05;3.25;;;;;;;14.85;43.73;98830.63;4850483;29;20044;-80
2022/04/15 08:40:31;;;;;;;20.50;3.22;;;;;;;14.99;44.34;98835.38;4850437;29;20045;-81
2022/04/15 08:43:00;;;;;;;7.57;2.88;;;;;;;15.44;44.32;98823.38;4859849;29;20053;-87
2022/04/15 08:45:27;;;;;;;;;;;;;;;15.81;43.19;98814.00;4870921;29;20445;-87
2022/04/15 08:48:01;;;;;;;19.05;3.63;;;;;;;15.88;43.17;98809.63;4882198;29;19927;-87
2022/04/15 08:50:28;;;;;;;10.18;2.55;;;;;;;15.87;41.67;98805.22;4850576;29;20052;-84
2022/04/15 08:52:56;;;;;;;11.50;2.65;;;;;;;15.89;41.76;98795.13;4867180;29;20049;-84
2022/04/15 08:55:23;;;;;;;11.35;2.78;;;;;;;15.70;41.99;98796.31;4851428;29;20049;-86
2022/04/15 08:57:49;;;;;;;10.18;2.63;;;;;;;15.56;42.29;98789.72;4851075;29;20045;-87
2022/04/15 09:00:16;;;;;;;10.75;3.08;;;;;;;15.32;42.84;98805.88;4865458;29;20077;-83
2022/04/15 09:02:52;;;;;;;16.05;3.38;;;;;;;15.15;42.20;98794.22;4882172;29;20117;-84
2022/04/15 09:05:24;;;;;;;16.08;3.00;;;;;;;15.34;42.62;98795.75;4866145;29;20073;-85
2022/04/15 09:08:00;;;;;;;16.67;3.38;;;;;;;15.40;42.02;98787.84;4867241;29;20041;-83
2022/04/15 09:10:26;;;;;;;10.13;3.00;;;;;;;15.23;41.48;98792.41;4882550;29;20177;-84
2022/04/15 09:12:52;;;;;;;7.10;2.58;;;;;;;15.36;40.66;98772.19;4865891;29;20041;-84
2022/04/15 09:15:18;;;;;;;13.50;2.70;;;;;;;15.37;41.08;98784.66;4836679;29;20067;-85
2022/04/15 09:17:49;;;;;;;14.57;3.20;;;;;;;15.36;40.92;98769.50;4835258;29;20502;-88
2022/04/15 09:20:16;;;;;;;5.03;2.88;;;;;;;15.22;41.11;98771.84;4865941;29;20051;-88
2022/04/15 09:22:46;;;;;;;7.28;3.05;;;;;;;15.28;41.06;98759.56;4850258;29;20108;-88
2022/04/15 09:25:13;;;;;;;11.50;2.70;;;;;;;15.19;41.13;98764.09;4836285;29;20057;-86
2022/04/15 09:27:40;;;;;;;11.35;2.85;;;;;;;15.12;41.61;98744.25;4850028;29;20057;-86
2022/04/15 09:30:06;;;;;;;9.50;2.88;;;;;;;15.14;41.59;98763.75;4865513;29;20049;-87
2022/04/15 09:32:32;;;;;;;31.58;3.60;;;;;;;14.98;41.39;98763.75;4849846;29;20547;-86
2022/04/15 09:35:00;;;;;;;26.30;3.40;;;;;;;14.74;41.23;98735.78;4849863;29;20037;-85
2022/04/15 09:37:30;;;;;;;22.30;3.60;;;;;;;14.84;41.18;98772.44;4834477;29;20053;-87
2022/04/15 09:40:14;;;;;;;17.67;3.50;;;;;;;15.08;41.49;98732.09;4881328;29;20052;-87
2022/04/15 09:42:46;;;;;;;9.23;2.85;;;;;;;15.52;40.88;98726.41;4865572;29;20144;-86
2022/04/15 09:45:16;;;;;;;10.75;3.45;;;;;;;15.95;40.53;98718.97;4865404;29;20056;-86
2022/04/15 09:47:57;;;;;;;12.68;2.90;;;;;;;16.02;40.42;98719.94;4882945;29;20057;-85
2022/04/15 09:50:27;;;;;;;20.92;4.10;;;;;;;15.78;40.84;98727.09;4835154;29;20045;-85
2022/04/15 09:53:06;;;;;;;11.10;3.60;;;;;;;15.75;40.87;98711.25;4865527;29;20048;-86
2022/04/15 09:55:32;;;;;;;20.08;3.45;;;;;;;15.77;40.32;98711.09;4834562;29;20442;-85
2022/04/15 09:58:10;;;;;;;4.80;3.08;;;;;;;15.70;39.73;98713.63;4881466;29;20073;-84
2022/04/15 10:00:37;;;;;;;10.25;2.83;;;;;;;15.45;40.47;98715.47;4849256;29;20040;-85
2022/04/15 10:03:07;;;;;;;14.63;3.53;;;;;;;15.87;39.35;98722.53;4833941;29;20469;-85
2022/04/15 10:05:35;;;;;;;9.52;2.50;;;;;;;16.24;38.41;98713.81;4881436;29;20143;-84
2022/04/15 10:08:01;;;;;;;12.45;2.88;;;;;;;15.78;38.49;98705.53;4849409;29;20076;-84
2022/04/15 10:10:30;;;;;;;18.58;3.10;;;;;;;15.42;38.76;98712.25;4849411;29;20045;-84
2022/04/15 10:12:59;;;;;;;6.40;2.17;;;;;;;15.23;39.18;98718.81;4864546;29;20045;-87
2022/04/15 10:15:27;;;;;;;14.18;2.08;;;;;;;15.08;38.90;98694.41;4848925;29;20060;-87
2022/04/15 10:17:53;;;;;;;16.88;2.53;;;;;;;15.01;39.12;98696.97;4864421;29;20140;-86
2022/04/15 10:20:19;;;;;;;18.92;2.40;;;;;;;15.00;39.73;98694.41;4881460;29;20068;-87
2022/04/15 10:22:46;;;;;;;7.28;2.58;;;;;;;14.90;39.65;98701.84;4864772;29;20493;-87
2022/04/15 10:25:17;;;;;;;8.70;2.30;;;;;;;14.73;39.57;98692.88;4848884;29;20147;-86
2022/04/15 10:27:47;;;;;;;19.98;3.80;;;;;;;14.64;39.99;98689.34;4881004;29;20075;-87
2022/04/15 10:30:19;;;;;;;6.82;3.03;;;;;;;14.67;40.16;98680.06;4833725;29;20105;-85
2022/04/15 10:32:53;;;;;;;3.67;2.30;;;;;;;14.54;40.39;98683.25;4849131;29;20501;-85
2022/04/15 10:35:22;;;;;;;11.68;1.90;;;;;;;14.48;40.68;98691.94;4848888;29;20448;-86
2022/04/15 10:38:03;;;;;;;4.15;2.13;;;;;;;14.60;40.58;98690.66;4864401;29;20053;-85
2022/04/15 10:40:31;;;;;;;18.23;3.13;;;;;;;15.05;40.38;98673.25;4833506;29;20052;-86
2022/04/15 10:43:05;;;;;;;9.63;2.30;;;;;;;15.07;39.28;98693.59;4864289;29;20132;-85
2022/04/15 10:45:37;;;;;;;24.52;2.20;;;;;;;15.02;39.36;98670.88;4864773;29;20045;-86
2022/04/15 10:48:04;;;;;;;6.78;1.90;;;;;;;15.26;39.55;98678.94;4833936;29;20044;-86
2022/04/15 10:50:33;;;;;;;3.67;1.70;;;;;;;15.40;39.42;98671.22;4864195;29;20052;-84
2022/04/15 10:53:30;;;;;;;2.88;1.80;;;;;;;15.62;39.27;98670.50;4847807;29;20081;-85
2022/04/15 10:56:07;;;;;;;10.40;2.20;;;;;;;15.43;39.92;98662.81;4848418;29;20136;-84
2022/04/15 11:01:13;;;;;;;12.15;1.92;;;;;;;15.30;40.39;98661.44;4833244;29;20045;-84
2022/04/15 11:01:34;;;;;;;5.97;1.60;;;;;;;15.17;40.51;98644.13;4864068;29;20045;-85
2022/04/15 11:04:05;;;;;;;5.72;2.00;;;;;;;15.56;40.47;98665.78;4863549;29;20424;-83
2022/04/15 11:06:31;;;;;;;8.05;1.67;;;;;;;15.50;40.48;98671.88;4863737;29;20501;-84
2022/04/15 11:09:15;;;;;;;8.63;1.70;;;;;;;15.53;40.11;98652.66;4880103;29;20045;-84
2022/04/15 11:11:50;;;;;;;10.13;1.95;;;;;;;15.75;39.61;98653.81;4865044;29;20048;-85
2022/04/15 11:14:17;;;;;;;4.35;1.35;;;;;;;15.52;39.65;98634.81;4866224;29;20135;-84
2022/04/15 11:16:48;;;;;;;8.88;1.73;;;;;;;15.89;39.49;98649.59;4848722;29;20569;-85
2022/04/15 11:19:23;;;;;;;6.28;1.58;;;;;;;16.00;39.26;98646.50;4849452;29;20052;-85
2022/04/15 11:21:53;;;;;;;5.68;1.70;;;;;;;16.07;39.16;98650.19;4851545;29;20048;-85
2022/04/15 11:24:27;;;;;;;9.07;1.77;;;;;;;16.20;38.34;98658.56;4853897;29;20434;-85
2022/04/15 11:27:03;;;;;;;11.30;2.10;;;;;;;16.34;38.58;98653.44;4850018;29;20049;-85
2022/04/15 11:29:30;;;;;;;9.63;2.78;;;;;;;16.23;38.48;98644.72;4848804;29;20045;-85
2022/04/15 11:32:04;;;;;;;3.72;1.35;;;;;;;15.87;38.67;98649.78;4850320;29;20457;-84
2022/04/15 11:34:30;;;;;;;11.45;2.03;;;;;;;15.62;39.35;98665.13;4832761;29;20041;-82
2022/04/15 11:37:01;;;;;;;11.30;1.65;;;;;;;15.44;39.61;98645.63;4847626;29;20096;-84
2022/04/15 11:39:28;;;;;;;15.90;3.22;;;;;;;15.18;40.14;98633.19;4862932;29;20084;-82
2022/04/15 11:41:59;;;;;;;4.70;1.50;;;;;;;15.17;39.79;98661.13;4858569;29;20119;-82